Time;durP1;ratioP1;P1;durP2;ratioP2;P2;SDS_P1;SDS_P2;PMS_P1;PMS_P2;Temp;Humidity;BMP_temperature;BMP_pressure;BME280_temperature;BME280_humidity;BME280_pressure;Samples;Min_cycle;Max_cycle;Signal;HPM_P1;HPM_P2
2023/12/27 00:00:45;;;;;;;86.82;59.75;;;7.20;99.90;;;;;;4935910;29;20030;-76
2023/12/27 00:03:11;;;;;;;84.55;56.70;;;7.20;99.90;;;;;;4918837;29;20055;-79
2023/12/27 00:05:37;;;;;;;73.50;50.00;;;7.20;99.90;;;;;;4935877;29;20037;-77
2023/12/27 00:08:03;;;;;;;87.82;57.40;;;7.20;99.90;;;;;;4935901;29;20025;-78
2023/12/27 00:10:29;;;;;;;78.57;53.78;;;7.10;99.90;;;;;;4935825;29;20404;-79
2023/12/27 00:12:54;;;;;;;87.28;57.67;;;7.10;99.90;;;;;;4918543;29;20099;-76
2023/12/27 00:15:20;;;;;;;77.90;52.85;;;7.00;99.90;;;;;;4936159;29;20015;-78
2023/12/27 00:17:46;;;;;;;108.70;73.22;;;7.00;99.90;;;;;;4935439;29;20775;-78
2023/12/27 00:20:12;;;;;;;110.55;69.35;;;7.00;99.90;;;;;;4935941;29;20047;-77
2023/12/27 00:22:38;;;;;;;112.38;73.43;;;7.00;99.90;;;;;;4935539;29;20052;-78
2023/12/27 00:25:04;;;;;;;124.00;85.35;;;7.10;99.90;;;;;;4935914;29;20024;-79
2023/12/27 00:27:30;;;;;;;120.50;78.38;;;7.10;99.90;;;;;;4935360;29;20039;-78
2023/12/27 00:29:56;;;;;;;118.88;77.15;;;7.10;99.90;;;;;;4935834;29;20035;-79
2023/12/27 00:32:22;;;;;;;110.93;73.28;;;7.10;99.90;;;;;;4935281;29;20489;-78
2023/12/27 00:34:48;;;;;;;112.13;74.68;;;7.10;99.90;;;;;;4918430;29;20063;-78
2023/12/27 00:37:15;;;;;;;105.00;72.88;;;7.00;99.90;;;;;;4935032;29;20114;-79
2023/12/27 00:39:44;;;;;;;118.10;73.00;;;7.00;99.90;;;;;;4917869;29;20046;-77
2023/12/27 00:42:10;;;;;;;103.82;68.80;;;7.00;99.90;;;;;;4915952;29;20099;-78
2023/12/27 00:44:36;;;;;;;96.47;62.65;;;7.00;99.90;;;;;;4925451;29;20441;-78
2023/12/27 00:47:02;;;;;;;97.40;64.13;;;7.00;99.90;;;;;;4916665;29;20095;-78
2023/12/27 00:49:28;;;;;;;91.15;63.65;;;7.00;99.90;;;;;;4925788;29;20027;-77
2023/12/27 00:51:55;;;;;;;101.95;67.13;;;6.90;99.90;;;;;;4931568;29;20031;-78
2023/12/27 00:54:21;;;;;;;102.57;68.60;;;6.90;99.90;;;;;;4915248;29;20039;-76
2023/12/27 00:56:48;;;;;;;110.05;68.07;;;6.80;99.90;;;;;;4929005;29;20474;-77
2023/12/27 00:59:15;;;;;;;90.95;63.83;;;6.80;99.90;;;;;;4913856;29;20035;-78
2023/12/27 01:01:43;;;;;;;90.63;63.13;;;6.70;99.90;;;;;;4931115;29;20487;-78
2023/12/27 01:04:09;;;;;;;87.13;58.15;;;6.70;99.90;;;;;;4929526;29;20028;-77
2023/12/27 01:06:35;;;;;;;88.47;59.00;;;6.60;99.90;;;;;;4926597;29;20023;-75
2023/12/27 01:09:01;;;;;;;93.18;63.70;;;6.40;99.90;;;;;;4918916;29;20034;-77
2023/12/27 01:11:27;;;;;;;97.13;69.45;;;6.40;99.90;;;;;;4917480;29;20052;-78
2023/12/27 01:13:53;;;;;;;121.80;80.22;;;6.40;99.90;;;;;;4935173;29;20035;-76
2023/12/27 01:16:20;;;;;;;108.80;73.95;;;6.40;99.90;;;;;;4934344;29;20024;-76
2023/12/27 01:18:46;;;;;;;106.93;74.32;;;6.40;99.90;;;;;;4917816;29;20114;-78
2023/12/27 01:21:13;;;;;;;103.57;72.75;;;6.40;99.90;;;;;;4934445;29;20032;-76
2023/12/27 01:23:40;;;;;;;111.93;71.57;;;6.50;99.90;;;;;;4934596;29;20515;-77
2023/12/27 01:26:06;;;;;;;91.85;66.30;;;6.40;99.90;;;;;;4918642;29;20026;-77
2023/12/27 01:28:32;;;;;;;88.88;61.05;;;6.30;99.90;;;;;;4934506;29;20079;-77
2023/12/27 01:30:58;;;;;;;101.15;67.90;;;6.30;99.90;;;;;;4919186;29;20023;-77
2023/12/27 01:33:24;;;;;;;84.68;61.38;;;6.30;99.90;;;;;;4907136;29;20091;-77
2023/12/27 01:35:50;;;;;;;89.43;63.40;;;6.20;99.90;;;;;;4929448;29;20440;-77
2023/12/27 01:38:18;;;;;;;85.20;60.85;;;6.20;99.90;;;;;;4925510;29;20031;-76
2023/12/27 01:40:51;;;;;;;89.15;59.67;;;6.20;99.90;;;;;;4934392;29;20031;-77
2023/12/27 01:43:17;;;;;;;88.90;66.10;;;6.20;99.90;;;;;;4924371;29;20053;-76
2023/12/27 01:45:47;;;;;;;105.18;69.47;;;6.10;99.90;;;;;;4916999;29;20472;-78
2023/12/27 01:48:13;;;;;;;100.07;70.78;;;6.10;99.90;;;;;;4934556;29;20046;-78
2023/12/27 01:50:39;;;;;;;87.40;61.92;;;6.10;99.90;;;;;;4919955;29;20026;-74
2023/12/27 01:53:08;;;;;;;98.90;70.93;;;6.20;99.90;;;;;;4923053;29;20031;-75
2023/12/27 01:55:35;;;;;;;93.93;64.75;;;6.20;99.90;;;;;;4938259;29;20600;-76
2023/12/27 01:58:02;;;;;;;91.10;61.25;;;6.10;99.90;;;;;;4921117;29;20030;-76
2023/12/27 02:00:28;;;;;;;92.53;66.18;;;6.10;99.90;;;;;;4921489;29;20023;-77
2023/12/27 02:02:54;;;;;;;108.32;76.15;;;6.10;99.90;;;;;;4920968;29;20107;-75
2023/12/27 02:05:20;;;;;;;107.50;68.88;;;6.00;99.90;;;;;;4920711;29;20115;-76
2023/12/27 02:07:48;;;;;;;96.85;67.32;;;6.00;99.90;;;;;;4938100;29;20027;-75
2023/12/27 02:10:15;;;;;;;119.88;81.88;;;5.90;99.90;;;;;;4937843;29;20373;-76
2023/12/27 02:12:41;;;;;;;117.13;79.30;;;5.90;99.90;;;;;;4910602;29;20515;-75
2023/12/27 02:15:07;;;;;;;109.10;77.72;;;5.90;99.90;;;;;;4937773;28;20043;-77
2023/12/27 02:17:33;;;;;;;106.70;74.07;;;5.90;99.90;;;;;;4929134;29;20035;-78
2023/12/27 02:19:59;;;;;;;104.63;72.53;;;6.00;99.90;;;;;;4922521;29;20027;-77
2023/12/27 02:22:27;;;;;;;111.07;79.90;;;6.00;99.90;;;;;;4922552;29;20044;-76
2023/12/27 02:24:54;;;;;;;129.38;88.07;;;5.90;99.90;;;;;;4922017;29;20113;-77
2023/12/27 02:27:21;;;;;;;128.55;87.05;;;5.90;99.90;;;;;;4919096;29;20381;-78
2023/12/27 02:29:46;;;;;;;140.75;97.75;;;6.00;99.90;;;;;;4918297;29;20420;-77
2023/12/27 02:32:12;;;;;;;157.02;105.75;;;5.90;99.90;;;;;;4917439;29;20028;-76
2023/12/27 02:34:38;;;;;;;138.32;92.68;;;6.00;99.90;;;;;;4921732;29;20377;-78
2023/12/27 02:37:04;;;;;;;136.93;90.88;;;5.90;99.90;;;;;;4920637;29;20024;-77
2023/12/27 02:39:30;;;;;;;122.57;85.35;;;6.00;99.90;;;;;;4917809;29;20028;-75
2023/12/27 02:41:56;;;;;;;110.18;74.57;;;6.00;99.90;;;;;;4916621;29;20445;-75
2023/12/27 02:44:25;;;;;;;111.05;73.20;;;5.90;99.90;;;;;;4915745;29;20040;-77
2023/12/27 02:46:52;;;;;;;104.82;70.88;;;5.90;99.90;;;;;;4920833;29;20480;-76
2023/12/27 02:49:18;;;;;;;101.68;70.68;;;5.80;99.90;;;;;;4907044;29;20044;-77
2023/12/27 02:51:46;;;;;;;106.90;70.10;;;5.80;99.90;;;;;;4917986;29;20055;-76
2023/12/27 02:54:12;;;;;;;104.18;70.63;;;5.80;99.90;;;;;;4917172;29;20075;-76
2023/12/27 02:56:39;;;;;;;96.55;69.05;;;5.80;99.90;;;;;;4921034;29;20100;-76
2023/12/27 02:59:05;;;;;;;112.72;76.30;;;5.70;99.90;;;;;;4920947;29;20024;-76
2023/12/27 03:01:31;;;;;;;106.13;73.35;;;5.30;99.90;;;;;;4903403;29;20027;-77
2023/12/27 03:03:57;;;;;;;103.75;69.47;;;5.40;99.90;;;;;;4917309;29;20111;-76
2023/12/27 03:06:23;;;;;;;133.43;85.13;;;5.50;99.90;;;;;;4923615;29;20032;-77
2023/12/27 03:08:52;;;;;;;101.60;71.68;;;5.50;99.90;;;;;;4921912;29;20024;-75
2023/12/27 03:11:18;;;;;;;96.57;65.82;;;5.60;99.90;;;;;;4919588;29;20079;-78
2023/12/27 03:13:44;;;;;;;97.28;67.93;;;5.60;99.90;;;;;;4918214;29;20449;-75
2023/12/27 03:16:10;;;;;;;107.00;68.32;;;5.60;99.90;;;;;;4916293;29;20031;-76
2023/12/27 03:18:37;;;;;;;92.50;64.30;;;5.60;99.90;;;;;;4921946;29;20032;-76
2023/12/27 03:21:03;;;;;;;93.35;65.65;;;5.60;99.90;;;;;;4918972;29;20024;-77
2023/12/27 03:23:29;;;;;;;89.18;61.85;;;5.60;99.90;;;;;;4919028;29;20035;-75
2023/12/27 03:25:55;;;;;;;95.57;65.20;;;5.60;99.90;;;;;;4902841;29;20492;-78
2023/12/27 03:28:25;;;;;;;104.57;69.20;;;5.50;99.90;;;;;;4916606;29;20045;-76
2023/12/27 03:30:50;;;;;;;100.75;70.60;;;5.60;99.90;;;;;;4921527;29;20036;-75
2023/12/27 03:33:18;;;;;;;99.07;71.10;;;5.70;99.90;;;;;;4917579;29;20103;-76
2023/12/27 03:35:44;;;;;;;100.45;75.50;;;5.70;99.90;;;;;;4924602;28;20481;-77
2023/12/27 03:38:10;;;;;;;108.28;78.05;;;5.80;99.90;;;;;;4916870;29;20504;-75
2023/12/27 03:40:36;;;;;;;144.45;92.20;;;5.70;99.90;;;;;;4917713;29;20024;-77
2023/12/27 03:43:02;;;;;;;134.38;88.95;;;5.70;99.90;;;;;;4919330;29;20048;-75
2023/12/27 03:45:27;;;;;;;151.10;97.57;;;5.80;99.90;;;;;;4921604;29;20032;-77
2023/12/27 03:47:53;;;;;;;134.07;84.03;;;5.80;99.90;;;;;;4911969;29;20504;-77
2023/12/27 03:50:19;;;;;;;113.95;75.57;;;5.90;99.90;;;;;;4916636;29;20092;-77
2023/12/27 03:52:45;;;;;;;96.88;66.97;;;5.90;99.90;;;;;;4915946;29;20384;-77
2023/12/27 03:55:11;;;;;;;86.22;57.33;;;5.90;99.90;;;;;;4923451;29;20477;-75
2023/12/27 03:57:37;;;;;;;84.03;54.40;;;5.90;99.90;;;;;;4918947;29;20481;-76
2023/12/27 04:00:10;;;;;;;80.60;54.88;;;6.00;99.90;;;;;;4918518;29;20069;-78
2023/12/27 04:02:36;;;;;;;98.72;63.88;;;6.00;99.90;;;;;;4919599;29;20048;-76
2023/12/27 04:05:03;;;;;;;98.25;61.85;;;6.00;99.90;;;;;;4918218;29;20476;-78
2023/12/27 04:07:29;;;;;;;114.35;73.07;;;6.00;99.90;;;;;;4918575;29;20052;-77
2023/12/27 04:09:55;;;;;;;174.48;102.28;;;6.10;99.90;;;;;;4919280;29;20062;-77
2023/12/27 04:12:21;;;;;;;175.55;121.30;;;6.10;99.90;;;;;;4922946;28;20044;-77
2023/12/27 04:14:48;;;;;;;124.85;79.90;;;6.20;99.90;;;;;;4916690;29;20021;-76
2023/12/27 04:17:15;;;;;;;101.53;71.60;;;6.20;99.90;;;;;;4916864;29;20044;-77
2023/12/27 04:19:41;;;;;;;101.15;67.47;;;6.20;99.90;;;;;;4920289;29;20019;-78
2023/12/27 04:22:07;;;;;;;91.63;64.53;;;6.30;99.90;;;;;;4917766;29;20040;-77
2023/12/27 04:24:34;;;;;;;106.45;68.65;;;6.30;99.90;;;;;;4917227;29;20083;-77
2023/12/27 04:27:02;;;;;;;107.70;70.22;;;6.30;99.90;;;;;;4915475;29;20107;-78
2023/12/27 04:29:28;;;;;;;97.85;66.78;;;6.20;99.90;;;;;;4918300;29;20048;-77
2023/12/27 04:31:54;;;;;;;96.78;63.65;;;6.30;99.90;;;;;;4919605;28;20032;-78
2023/12/27 04:34:20;;;;;;;93.35;64.45;;;6.30;99.90;;;;;;4889217;29;20400;-77
2023/12/27 04:36:46;;;;;;;94.18;62.63;;;6.20;99.90;;;;;;4916093;29;20028;-78
2023/12/27 04:39:12;;;;;;;91.07;61.78;;;6.30;99.90;;;;;;4914621;29;20425;-75
2023/12/27 04:41:37;;;;;;;89.38;65.22;;;6.30;99.90;;;;;;4918237;29;20509;-76
2023/12/27 04:44:04;;;;;;;93.13;59.92;;;6.30;99.90;;;;;;4907009;29;20058;-77
2023/12/27 04:46:29;;;;;;;86.15;59.95;;;6.30;99.90;;;;;;4917103;28;20036;-77
2023/12/27 04:48:55;;;;;;;95.43;66.22;;;6.40;99.90;;;;;;4920010;29;20091;-75
2023/12/27 04:51:21;;;;;;;99.32;64.30;;;6.40;99.90;;;;;;4912433;29;20087;-77
2023/12/27 04:53:47;;;;;;;110.78;68.70;;;6.40;99.90;;;;;;4908592;29;20027;-77
2023/12/27 04:56:16;;;;;;;94.93;69.32;;;6.40;99.90;;;;;;4918027;29;20060;-76
2023/12/27 04:58:42;;;;;;;108.80;71.45;;;6.50;99.90;;;;;;4916612;29;20032;-77
2023/12/27 05:01:08;;;;;;;110.50;68.18;;;6.50;99.90;;;;;;4914572;29;20444;-77
2023/12/27 05:03:37;;;;;;;99.38;64.75;;;6.60;99.90;;;;;;4913771;29;20040;-76
2023/12/27 05:06:08;;;;;;;96.45;62.15;;;6.70;99.90;;;;;;4919984;29;20551;-77
2023/12/27 05:08:34;;;;;;;99.43;68.40;;;6.80;99.90;;;;;;4919777;29;20031;-77
2023/12/27 05:11:01;;;;;;;97.22;68.82;;;6.90;99.90;;;;;;4926747;29;20048;-77
2023/12/27 05:13:27;;;;;;;100.85;66.93;;;6.90;99.90;;;;;;4927989;29;20027;-77
2023/12/27 05:15:53;;;;;;;99.82;69.15;;;7.00;99.90;;;;;;4931672;29;20369;-77
2023/12/27 05:18:19;;;;;;;114.90;74.72;;;7.00;99.90;;;;;;4929118;29;20034;-79
2023/12/27 05:20:44;;;;;;;109.45;72.00;;;7.10;99.90;;;;;;4928000;29;20038;-79
2023/12/27 05:23:10;;;;;;;109.38;73.85;;;7.10;99.90;;;;;;4928382;29;20046;-76
2023/12/27 05:25:36;;;;;;;104.25;70.63;;;7.10;99.90;;;;;;4920221;29;20068;-77
2023/12/27 05:28:02;;;;;;;100.60;65.88;;;7.10;99.90;;;;;;4931502;29;20032;-76
2023/12/27 05:30:28;;;;;;;108.47;70.15;;;7.10;99.90;;;;;;4929752;29;20023;-75
2023/12/27 05:32:54;;;;;;;102.90;66.68;;;7.10;99.90;;;;;;4917497;29;20037;-76
2023/12/27 05:35:20;;;;;;;105.22;68.47;;;7.20;99.90;;;;;;4934539;29;20020;-75
2023/12/27 05:37:46;;;;;;;99.28;65.53;;;7.20;99.90;;;;;;4934552;29;20036;-75
2023/12/27 05:40:12;;;;;;;96.53;64.88;;;7.30;99.90;;;;;;4936714;29;20075;-75
2023/12/27 05:42:38;;;;;;;102.05;66.28;;;7.30;99.90;;;;;;4917436;29;20399;-75
2023/12/27 05:45:04;;;;;;;90.78;62.30;;;7.30;99.90;;;;;;4934204;29;20051;-76
2023/12/27 05:47:30;;;;;;;93.68;59.63;;;7.20;99.90;;;;;;4934743;29;20093;-75
2023/12/27 05:49:56;;;;;;;99.57;67.82;;;7.20;99.90;;;;;;4934216;29;20448;-75
2023/12/27 05:52:22;;;;;;;103.53;67.40;;;7.30;99.90;;;;;;4934488;29;20407;-75
2023/12/27 05:54:48;;;;;;;97.30;65.57;;;7.30;99.90;;;;;;4917365;29;20047;-75
2023/12/27 05:57:13;;;;;;;99.35;66.68;;;7.30;99.90;;;;;;4934566;29;20066;-76
2023/12/27 05:59:39;;;;;;;104.95;66.50;;;7.30;99.90;;;;;;4934308;29;20036;-76
2023/12/27 06:02:06;;;;;;;92.90;64.82;;;7.40;99.90;;;;;;4934046;29;20086;-75
2023/12/27 06:04:32;;;;;;;91.35;64.82;;;7.40;99.90;;;;;;4934174;29;20059;-75
2023/12/27 06:06:58;;;;;;;101.43;67.35;;;7.50;99.90;;;;;;4917220;29;20028;-75
2023/12/27 06:09:24;;;;;;;111.18;69.30;;;7.50;99.90;;;;;;4934013;29;20035;-76
2023/12/27 06:11:50;;;;;;;99.95;69.15;;;7.50;99.90;;;;;;4916790;29;20248;-75
2023/12/27 06:14:15;;;;;;;103.28;68.88;;;7.50;99.90;;;;;;4934655;29;20143;-75
2023/12/27 06:16:42;;;;;;;95.57;66.93;;;7.40;99.90;;;;;;4944521;29;20507;-75
2023/12/27 06:19:07;;;;;;;93.07;67.05;;;7.50;99.90;;;;;;4934399;29;20034;-76
2023/12/27 06:21:33;;;;;;;98.15;66.43;;;7.50;99.90;;;;;;4933967;29;20040;-76
2023/12/27 06:23:59;;;;;;;98.97;65.45;;;7.50;99.90;;;;;;4934431;29;20036;-76
2023/12/27 06:26:25;;;;;;;89.20;62.80;;;7.60;99.90;;;;;;4933889;29;20391;-76
2023/12/27 06:28:51;;;;;;;88.85;58.70;;;7.60;99.90;;;;;;4934476;29;20432;-76
2023/12/27 06:31:17;;;;;;;82.68;54.35;;;7.50;99.90;;;;;;4934039;29;20028;-76
2023/12/27 06:33:43;;;;;;;89.10;55.65;;;7.50;99.90;;;;;;4934532;29;20028;-76
2023/12/27 06:36:08;;;;;;;88.18;55.60;;;7.50;99.90;;;;;;4935535;29;20034;-75
2023/12/27 06:38:34;;;;;;;89.15;59.28;;;7.40;99.90;;;;;;4937823;29;20031;-75
2023/12/27 06:41:02;;;;;;;88.50;57.22;;;7.40;99.90;;;;;;4936926;29;20102;-76
2023/12/27 06:43:29;;;;;;;90.10;56.30;;;7.40;99.90;;;;;;4937542;29;20118;-76
2023/12/27 06:45:55;;;;;;;82.70;55.10;;;7.50;99.90;;;;;;4920654;29;20031;-75
2023/12/27 06:48:21;;;;;;;92.95;55.28;;;7.50;99.90;;;;;;4937548;29;20028;-75
2023/12/27 06:50:48;;;;;;;79.65;55.00;;;7.60;99.90;;;;;;4937551;29;20052;-76
2023/12/27 06:53:14;;;;;;;84.47;54.85;;;7.60;99.90;;;;;;4937274;29;20036;-76
2023/12/27 06:55:40;;;;;;;80.75;55.05;;;7.70;99.90;;;;;;4920445;29;20035;-76
2023/12/27 06:58:06;;;;;;;87.43;58.08;;;7.70;99.90;;;;;;4937071;29;20024;-75
2023/12/27 07:00:31;;;;;;;87.32;58.42;;;7.80;99.90;;;;;;4939477;29;20034;-76
2023/12/27 07:02:59;;;;;;;95.75;64.80;;;7.80;99.90;;;;;;4936601;29;20040;-76
2023/12/27 07:05:27;;;;;;;92.82;58.70;;;7.80;99.90;;;;;;4946495;29;20070;-75
2023/12/27 07:07:53;;;;;;;114.00;72.28;;;7.80;99.90;;;;;;4940277;29;20486;-76
2023/12/27 07:10:19;;;;;;;103.32;68.60;;;7.80;99.90;;;;;;4936531;29;20039;-75
2023/12/27 07:12:45;;;;;;;107.68;65.60;;;7.90;99.90;;;;;;4919838;29;20039;-76
2023/12/27 07:15:11;;;;;;;108.53;60.97;;;7.80;99.90;;;;;;4920007;29;20065;-76
2023/12/27 07:17:37;;;;;;;98.88;56.20;;;7.90;99.90;;;;;;4937970;29;20043;-76
2023/12/27 07:20:04;;;;;;;95.25;55.25;;;8.00;99.90;;;;;;4924164;29;20043;-75
2023/12/27 07:22:30;;;;;;;105.68;56.47;;;8.00;99.90;;;;;;4935799;29;20508;-73
2023/12/27 07:24:55;;;;;;;105.78;58.40;;;8.00;99.90;;;;;;4936634;29;20054;-76
2023/12/27 07:27:21;;;;;;;110.13;60.83;;;8.00;99.90;;;;;;4936635;29;20038;-75
2023/12/27 07:29:47;;;;;;;109.32;63.85;;;8.10;99.90;;;;;;4919530;29;20403;-77
2023/12/27 07:32:13;;;;;;;104.82;61.15;;;8.10;99.90;;;;;;4936164;29;20075;-77
2023/12/27 07:34:39;;;;;;;108.13;63.45;;;8.20;99.90;;;;;;4936196;29;20026;-75
2023/12/27 07:37:05;;;;;;;110.80;61.75;;;8.20;99.90;;;;;;4935282;29;20020;-76
2023/12/27 07:39:32;;;;;;;110.47;61.83;;;8.20;99.90;;;;;;4936418;29;20114;-76
2023/12/27 07:41:59;;;;;;;98.47;57.88;;;8.30;99.90;;;;;;4936177;29;20496;-74
2023/12/27 07:44:26;;;;;;;121.25;63.38;;;8.40;99.90;;;;;;4936611;29;20051;-77
2023/12/27 07:46:53;;;;;;;109.47;61.78;;;8.40;99.90;;;;;;4918072;29;20078;-76
2023/12/27 07:49:19;;;;;;;100.63;65.20;;;8.40;99.90;;;;;;4936213;29;20031;-76
2023/12/27 07:51:44;;;;;;;105.53;65.15;;;8.60;99.90;;;;;;4935288;29;20028;-76
2023/12/27 07:54:10;;;;;;;118.38;63.78;;;8.70;99.90;;;;;;4947319;29;20362;-76
2023/12/27 07:56:37;;;;;;;109.95;65.70;;;8.70;99.90;;;;;;4924093;29;20499;-76
2023/12/27 07:59:04;;;;;;;98.65;61.55;;;8.80;99.90;;;;;;4935472;29;20027;-75
2023/12/27 08:01:31;;;;;;;102.15;61.58;;;8.90;99.90;;;;;;4927233;29;20071;-75
2023/12/27 08:03:59;;;;;;;100.97;58.90;;;8.90;99.90;;;;;;4918619;29;20240;-75
2023/12/27 08:06:26;;;;;;;109.55;61.38;;;9.00;99.90;;;;;;4935774;29;20036;-75
2023/12/27 08:08:53;;;;;;;96.65;56.83;;;9.10;99.90;;;;;;4941671;29;20117;-76
2023/12/27 08:11:20;;;;;;;96.43;55.08;;;9.00;99.90;;;;;;4929552;29;20043;-76
2023/12/27 08:13:46;;;;;;;94.43;60.05;;;9.10;99.90;;;;;;4927768;29;20504;-76
2023/12/27 08:16:12;;;;;;;108.07;63.55;;;9.10;99.90;;;;;;4918601;29;20047;-76
2023/12/27 08:18:38;;;;;;;134.45;80.13;;;9.20;99.90;;;;;;4916344;29;20027;-75
2023/12/27 08:21:07;;;;;;;112.30;68.80;;;9.10;99.90;;;;;;4919010;29;20021;-76
2023/12/27 08:23:33;;;;;;;89.00;59.25;;;9.10;99.90;;;;;;4927460;29;20047;-75
2023/12/27 08:25:59;;;;;;;81.10;53.03;;;9.10;99.90;;;;;;4927823;29;20392;-77
2023/12/27 08:28:25;;;;;;;86.30;58.72;;;9.10;99.90;;;;;;4935674;29;20040;-76
2023/12/27 08:30:53;;;;;;;80.90;52.65;;;9.10;99.90;;;;;;4935137;29;20016;-75
2023/12/27 08:33:19;;;;;;;85.65;51.50;;;9.10;99.90;;;;;;4923990;29;20055;-76
2023/12/27 08:35:45;;;;;;;76.55;50.95;;;9.10;99.90;;;;;;4935366;29;20111;-77
2023/12/27 08:38:11;;;;;;;72.50;49.50;;;9.10;99.90;;;;;;4918470;29;20040;-76
2023/12/27 08:40:36;;;;;;;69.72;46.63;;;9.10;99.90;;;;;;4935085;29;20436;-76
2023/12/27 08:43:03;;;;;;;89.97;51.42;;;9.20;99.90;;;;;;4935230;29;20428;-76
2023/12/27 08:45:29;;;;;;;77.07;51.65;;;9.20;99.90;;;;;;4935194;29;20032;-76
2023/12/27 08:47:55;;;;;;;80.53;52.17;;;9.20;99.90;;;;;;4935170;29;20032;-76
2023/12/27 08:50:21;;;;;;;76.97;51.08;;;9.20;99.90;;;;;;4935339;29;20107;-76
2023/12/27 08:52:46;;;;;;;103.85;65.18;;;9.30;99.90;;;;;;4918052;29;20491;-76
2023/12/27 08:55:12;;;;;;;99.82;59.88;;;9.30;99.90;;;;;;4935315;29;20036;-77
2023/12/27 08:57:38;;;;;;;95.20;61.05;;;9.40;99.90;;;;;;4917982;29;20110;-76
2023/12/27 09:00:10;;;;;;;111.00;65.05;;;9.20;99.90;;;;;;4934656;29;20040;-75
2023/12/27 09:02:39;;;;;;;108.70;68.97;;;9.20;99.90;;;;;;4934880;29;20048;-77
2023/12/27 09:05:06;;;;;;;98.57;67.93;;;9.40;99.90;;;;;;4934748;29;20368;-76
2023/12/27 09:07:32;;;;;;;92.70;62.22;;;9.40;99.90;;;;;;4935067;29;20039;-76
2023/12/27 09:09:58;;;;;;;96.85;61.78;;;9.50;99.90;;;;;;4934430;29;20043;-74
2023/12/27 09:12:25;;;;;;;91.03;58.35;;;9.60;99.90;;;;;;4934978;29;20036;-75
2023/12/27 09:14:51;;;;;;;91.32;55.85;;;9.60;99.90;;;;;;4934764;29;20020;-77
2023/12/27 09:17:18;;;;;;;90.82;57.05;;;9.60;99.90;;;;;;4918115;29;20110;-77
2023/12/27 09:19:44;;;;;;;88.20;55.22;;;9.50;99.90;;;;;;4934498;29;20028;-77
2023/12/27 09:22:10;;;;;;;89.03;54.58;;;9.50;99.90;;;;;;4917708;29;20054;-76
2023/12/27 09:24:36;;;;;;;76.40;46.75;;;9.60;99.90;;;;;;4934553;29;20032;-77
2023/12/27 09:27:03;;;;;;;64.75;40.88;;;9.70;99.90;;;;;;4918073;29;20123;-76
2023/12/27 09:29:30;;;;;;;96.43;56.85;;;9.60;99.90;;;;;;4917513;29;20043;-76
2023/12/27 09:31:56;;;;;;;66.10;40.60;;;9.70;99.90;;;;;;4934690;29;20073;-76
2023/12/27 09:34:22;;;;;;;60.88;37.67;;;9.60;99.90;;;;;;4934682;29;20917;-77
2023/12/27 09:36:48;;;;;;;67.05;39.90;;;9.70;99.90;;;;;;4917348;29;20059;-76
2023/12/27 09:39:14;;;;;;;68.57;39.88;;;9.60;99.90;;;;;;4933823;29;20036;-76
2023/12/27 09:41:41;;;;;;;71.57;43.00;;;9.60;99.90;;;;;;4917308;29;20055;-76
2023/12/27 09:44:13;;;;;;;76.95;48.00;;;9.80;99.90;;;;;;4917652;29;20861;-76
2023/12/27 09:46:39;;;;;;;88.80;55.17;;;9.80;99.90;;;;;;4934384;29;20053;-76
2023/12/27 09:49:09;;;;;;;95.25;57.67;;;9.70;99.90;;;;;;4917639;29;20030;-76
2023/12/27 09:51:38;;;;;;;96.80;59.85;;;9.90;99.90;;;;;;4934396;29;20028;-77
2023/12/27 09:54:04;;;;;;;123.78;74.18;;;9.90;99.90;;;;;;4934277;29;20038;-77
2023/12/27 09:56:31;;;;;;;148.98;87.43;;;10.00;99.90;;;;;;4934338;29;20107;-77
2023/12/27 09:59:05;;;;;;;134.38;90.97;;;10.10;99.90;;;;;;4934253;29;20042;-77
2023/12/27 10:01:37;;;;;;;133.90;91.78;;;10.10;99.90;;;;;;4934318;29;20035;-77
2023/12/27 10:04:11;;;;;;;138.02;84.65;;;10.20;99.90;;;;;;4934368;29;20032;-76
2023/12/27 10:06:49;;;;;;;124.85;78.97;;;10.30;99.90;;;;;;4934053;29;20494;-76
2023/12/27 10:09:15;;;;;;;123.13;79.45;;;10.40;99.90;;;;;;4934486;29;20404;-77
2023/12/27 10:11:42;;;;;;;109.93;68.38;;;10.50;99.90;;;;;;4936391;29;20079;-75
2023/12/27 10:14:12;;;;;;;121.60;78.53;;;10.50;99.90;;;;;;4938183;29;20202;-76
2023/12/27 10:16:38;;;;;;;106.90;72.57;;;10.50;99.90;;;;;;4937760;29;20035;-75
2023/12/27 10:19:05;;;;;;;100.88;67.35;;;10.50;99.90;;;;;;4940659;29;20078;-75
2023/12/27 10:21:44;;;;;;;115.93;72.60;;;10.40;99.90;;;;;;4937842;29;20044;-77
2023/12/27 10:24:10;;;;;;;99.85;68.88;;;10.50;99.90;;;;;;4937582;29;20086;-76
2023/12/27 10:26:36;;;;;;;112.97;71.13;;;10.50;99.90;;;;;;4938024;29;20107;-77
2023/12/27 10:29:03;;;;;;;99.97;70.68;;;10.60;99.90;;;;;;4937454;29;20028;-77
2023/12/27 10:31:29;;;;;;;113.85;73.50;;;10.60;99.90;;;;;;4937768;29;20023;-77
2023/12/27 10:33:57;;;;;;;113.03;73.70;;;10.70;99.90;;;;;;4937577;29;20031;-77
2023/12/27 10:36:25;;;;;;;117.68;83.60;;;10.70;99.90;;;;;;4937876;29;20038;-77
2023/12/27 10:38:51;;;;;;;142.18;93.38;;;10.80;99.90;;;;;;4937505;29;20506;-77
2023/12/27 10:41:17;;;;;;;92.28;66.07;;;10.90;99.90;;;;;;4937305;29;20020;-76
2023/12/27 10:43:43;;;;;;;79.47;53.38;;;11.10;99.90;;;;;;4937499;29;20067;-77
2023/12/27 10:46:09;;;;;;;85.50;52.70;;;11.20;99.90;;;;;;4937352;29;20480;-76
2023/12/27 10:48:40;;;;;;;79.80;52.42;;;11.30;99.90;;;;;;4937409;29;20035;-77
2023/12/27 10:51:09;;;;;;;87.50;56.40;;;11.40;99.90;;;;;;4920122;29;20034;-76
2023/12/27 10:53:36;;;;;;;86.30;54.00;;;11.40;99.90;;;;;;4937237;29;20111;-77
2023/12/27 10:56:05;;;;;;;81.53;52.03;;;11.50;99.90;;;;;;4937253;29;20090;-74
2023/12/27 10:58:34;;;;;;;86.20;53.42;;;11.60;99.90;;;;;;4936980;29;20087;-75
2023/12/27 11:01:00;;;;;;;75.72;43.97;;;11.50;99.90;;;;;;4937345;29;20503;-77
2023/12/27 11:03:29;;;;;;;66.35;41.17;;;11.60;99.90;;;;;;4936896;29;20036;-77
2023/12/27 11:05:58;;;;;;;85.63;44.80;;;11.60;99.90;;;;;;4937381;29;20075;-76
2023/12/27 11:08:27;;;;;;;99.60;44.70;;;11.60;99.90;;;;;;4936962;29;20095;-78
2023/12/27 11:10:53;;;;;;;93.85;46.05;;;11.70;99.90;;;;;;4937125;29;20072;-75
2023/12/27 11:13:25;;;;;;;86.95;44.80;;;11.70;99.90;;;;;;4936252;29;20039;-76
2023/12/27 11:15:53;;;;;;;99.32;50.67;;;11.80;99.90;;;;;;4947056;29;20035;-75
2023/12/27 11:18:21;;;;;;;108.80;57.10;;;11.90;99.90;;;;;;4920588;29;20032;-75
2023/12/27 11:20:50;;;;;;;94.65;54.22;;;11.80;99.90;;;;;;4924477;29;20047;-75
2023/12/27 11:23:17;;;;;;;88.07;58.30;;;11.90;99.90;;;;;;4919187;29;20082;-74
2023/12/27 11:25:43;;;;;;;97.65;63.80;;;11.90;99.90;;;;;;4931069;29;20020;-78
2023/12/27 11:28:09;;;;;;;90.95;59.60;;;11.90;99.90;;;;;;4920340;29;20078;-77
2023/12/27 11:30:36;;;;;;;91.28;59.63;;;12.00;99.90;;;;;;4921842;29;20029;-77
2023/12/27 11:33:02;;;;;;;81.35;54.80;;;12.00;99.90;;;;;;4925762;29;20027;-76
2023/12/27 11:35:29;;;;;;;62.17;46.97;;;12.00;99.90;;;;;;4932032;29;20111;-76
2023/12/27 11:38:25;;;;;;;51.75;36.17;;;11.90;99.90;;;;;;4935098;29;20028;-77
2023/12/27 11:40:53;;;;;;;56.45;37.50;;;11.90;99.90;;;;;;4925534;29;20047;-78
2023/12/27 11:43:20;;;;;;;50.55;35.55;;;12.00;99.90;;;;;;4938202;29;20038;-75
2023/12/27 11:45:58;;;;;;;50.22;34.95;;;12.20;99.90;;;;;;4936136;29;20024;-77
2023/12/27 11:48:25;;;;;;;47.25;34.65;;;12.30;99.90;;;;;;4936549;29;20111;-76
2023/12/27 11:50:51;;;;;;;66.38;49.63;;;12.30;99.90;;;;;;4929775;29;20020;-76
2023/12/27 11:53:19;;;;;;;70.78;49.08;;;12.40;99.90;;;;;;4935618;29;20023;-76
2023/12/27 11:55:46;;;;;;;87.22;49.13;;;12.40;99.90;;;;;;4934544;29;20050;-75
2023/12/27 11:58:15;;;;;;;81.50;48.22;;;12.50;99.90;;;;;;4932202;29;20016;-77
2023/12/27 12:00:41;;;;;;;72.40;49.40;;;12.60;99.90;;;;;;4935759;29;20153;-77
2023/12/27 12:03:24;;;;;;;68.45;48.63;;;12.60;99.90;;;;;;4935529;29;20028;-76
2023/12/27 12:06:26;;;;;;;71.00;46.67;;;12.70;99.90;;;;;;4933597;29;20076;-76
2023/12/27 12:08:52;;;;;;;68.88;49.72;;;12.80;99.90;;;;;;4943952;29;20031;-77
2023/12/27 12:11:21;;;;;;;73.45;51.33;;;13.00;99.90;;;;;;4935619;29;20048;-77
2023/12/27 12:13:47;;;;;;;71.03;53.63;;;13.10;99.90;;;;;;4935867;29;20031;-76
2023/12/27 12:16:13;;;;;;;76.72;52.90;;;13.20;99.90;;;;;;4922038;29;20427;-76
2023/12/27 12:18:39;;;;;;;78.15;53.72;;;13.10;99.90;;;;;;4934976;29;20143;-74
2023/12/27 12:21:05;;;;;;;66.50;43.85;;;13.20;99.90;;;;;;4924052;29;20027;-74
2023/12/27 12:23:32;;;;;;;52.72;36.50;;;13.40;99.90;;;;;;4904747;29;20384;-75
2023/12/27 12:26:00;;;;;;;59.50;39.58;;;13.40;99.90;;;;;;4935820;29;20028;-76
2023/12/27 12:28:30;;;;;;;49.92;34.70;;;13.50;99.90;;;;;;4918748;29;20039;-78